Time;durP1;ratioP1;P1;durP2;ratioP2;P2;SDS_P1;SDS_P2;PMS_P1;PMS_P2;Temp;Humidity;BMP_temperature;BMP_pressure;BME280_temperature;BME280_humidity;BME280_pressure;Samples;Min_cycle;Max_cycle;Signal;HPM_P1;HPM_P2
2021/01/16 00:00:38;;;;;;;22.47;12.20;;;3.00;87.00;;;;;;4902269;29;20369;-73
2021/01/16 00:03:11;;;;;;;23.73;13.23;;;3.00;87.00;;;;;;4919386;29;20020;-74
2021/01/16 00:05:37;;;;;;;31.10;14.53;;;3.00;86.80;;;;;;4917712;29;20442;-74
2021/01/16 00:08:09;;;;;;;27.57;12.80;;;3.00;86.80;;;;;;4918155;29;20032;-74
2021/01/16 00:10:37;;;;;;;26.43;13.30;;;3.00;86.70;;;;;;4917975;29;20032;-74
2021/01/16 00:13:04;;;;;;;24.90;12.90;;;3.00;86.60;;;;;;4917967;29;20034;-74
2021/01/16 00:15:30;;;;;;;25.13;13.40;;;3.00;86.50;;;;;;4918905;29;20476;-74
2021/01/16 00:18:03;;;;;;;21.80;12.73;;;3.00;86.50;;;;;;4917788;29;20115;-74
2021/01/16 00:20:30;;;;;;;25.25;12.20;;;3.00;86.40;;;;;;4917414;29;20035;-74
2021/01/16 00:22:55;;;;;;;21.57;11.93;;;3.00;86.40;;;;;;4917526;29;20020;-74
2021/01/16 00:25:21;;;;;;;22.00;12.50;;;3.00;86.40;;;;;;4917613;29;20047;-74
2021/01/16 00:27:47;;;;;;;18.87;11.33;;;3.00;86.40;;;;;;4917873;29;20020;-74
2021/01/16 00:30:14;;;;;;;23.97;13.03;;;2.90;86.40;;;;;;4901676;29;20028;-74
2021/01/16 00:32:41;;;;;;;24.17;11.90;;;2.90;86.50;;;;;;4918497;29;20096;-74
2021/01/16 00:35:13;;;;;;;25.27;12.67;;;2.90;86.60;;;;;;4917232;29;20036;-74
2021/01/16 00:37:39;;;;;;;23.13;12.40;;;2.90;86.70;;;;;;4918552;29;20028;-73
2021/01/16 00:40:11;;;;;;;23.93;12.57;;;2.90;86.70;;;;;;4926151;29;20063;-73
2021/01/16 00:42:55;;;;;;;22.63;11.60;;;2.90;86.70;;;;;;4904585;29;20420;-74
2021/01/16 00:45:23;;;;;;;24.53;12.73;;;2.80;86.60;;;;;;4904748;29;20361;-74
2021/01/16 00:47:49;;;;;;;24.30;12.63;;;2.80;86.70;;;;;;4904638;29;20408;-74
2021/01/16 00:50:17;;;;;;;20.20;11.23;;;2.90;86.80;;;;;;4937258;29;20054;-74
2021/01/16 00:52:53;;;;;;;28.20;12.63;;;2.80;86.80;;;;;;4920022;29;20475;-74
2021/01/16 00:55:19;;;;;;;22.80;12.57;;;2.80;86.70;;;;;;4937093;29;20464;-75
2021/01/16 00:57:44;;;;;;;22.13;12.40;;;2.80;86.70;;;;;;4904494;29;20039;-74
2021/01/16 01:00:11;;;;;;;23.80;11.87;;;2.80;86.80;;;;;;4904510;29;20534;-74
2021/01/16 01:02:41;;;;;;;24.10;12.10;;;2.80;87.30;;;;;;4904194;29;20031;-74
2021/01/16 01:05:08;;;;;;;20.50;11.30;;;2.80;86.60;;;;;;4920321;29;20034;-74
2021/01/16 01:07:34;;;;;;;24.03;12.57;;;2.80;86.40;;;;;;4919898;29;20083;-74
2021/01/16 01:10:00;;;;;;;20.77;10.97;;;2.70;86.50;;;;;;4920122;29;20039;-74
2021/01/16 01:12:25;;;;;;;20.67;10.93;;;2.80;86.50;;;;;;4904552;29;20040;-82
2021/01/16 01:14:51;;;;;;;21.33;10.90;;;2.80;86.50;;;;;;4919354;29;20500;-82
2021/01/16 01:17:18;;;;;;;22.63;11.30;;;2.80;87.00;;;;;;4903529;29;20114;-82
2021/01/16 01:19:45;;;;;;;21.10;12.10;;;2.80;86.20;;;;;;4919830;29;20028;-81
2021/01/16 01:22:11;;;;;;;23.80;11.67;;;2.80;86.00;;;;;;4936839;29;20027;-82
2021/01/16 01:24:37;;;;;;;22.17;11.40;;;2.80;85.90;;;;;;4904049;29;20032;-80
2021/01/16 01:27:06;;;;;;;22.10;11.63;;;2.80;85.90;;;;;;4919833;29;20042;-80
2021/01/16 01:29:33;;;;;;;22.80;12.77;;;2.80;85.90;;;;;;4936751;29;20039;-81
2021/01/16 01:31:59;;;;;;;25.10;13.03;;;2.80;85.60;;;;;;4936651;29;20518;-82
2021/01/16 01:34:25;;;;;;;25.87;12.47;;;2.80;85.50;;;;;;4919580;29;20042;-82
2021/01/16 01:36:51;;;;;;;22.97;12.20;;;2.80;85.50;;;;;;4936599;29;20043;-82
2021/01/16 01:39:17;;;;;;;21.80;12.07;;;2.80;85.50;;;;;;4919456;29;20050;-82
2021/01/16 01:41:42;;;;;;;22.60;12.37;;;2.70;85.40;;;;;;4919215;29;20039;-81
2021/01/16 01:44:08;;;;;;;25.80;12.30;;;2.70;85.30;;;;;;4919535;29;20031;-81
2021/01/16 01:46:35;;;;;;;22.57;11.97;;;2.80;85.40;;;;;;4903855;29;20472;-81
2021/01/16 01:49:02;;;;;;;20.53;11.57;;;2.70;85.30;;;;;;4919508;29;20605;-81
2021/01/16 01:51:31;;;;;;;18.97;10.83;;;2.80;85.30;;;;;;4903577;29;20028;-81
2021/01/16 01:53:58;;;;;;;20.30;10.47;;;2.70;85.30;;;;;;4936430;29;20031;-81
2021/01/16 01:56:26;;;;;;;21.50;10.70;;;2.70;85.30;;;;;;4936295;29;20044;-81
2021/01/16 01:58:53;;;;;;;17.83;9.83;;;2.70;85.40;;;;;;4919126;29;20019;-81
2021/01/16 02:01:20;;;;;;;21.73;11.40;;;2.70;85.40;;;;;;4919650;29;20040;-82
2021/01/16 02:03:50;;;;;;;23.33;11.17;;;2.70;85.30;;;;;;4919170;29;20024;-81
2021/01/16 02:06:16;;;;;;;19.27;11.17;;;2.70;85.20;;;;;;4903467;29;20032;-82
2021/01/16 02:08:42;;;;;;;21.73;12.40;;;2.70;85.00;;;;;;4903393;29;20032;-82
2021/01/16 02:11:11;;;;;;;19.30;10.87;;;2.70;84.80;;;;;;4903843;29;20040;-82
2021/01/16 02:13:37;;;;;;;20.57;10.47;;;2.70;84.70;;;;;;4919359;29;20063;-82
2021/01/16 02:16:31;;;;;;;20.00;9.63;;;2.70;84.80;;;;;;4936046;29;20391;-82
2021/01/16 02:18:57;;;;;;;21.80;10.60;;;2.70;84.90;;;;;;4936026;29;20023;-81
2021/01/16 02:21:25;;;;;;;19.93;9.97;;;2.70;84.80;;;;;;4935909;29;20075;-82
2021/01/16 02:24:00;;;;;;;20.37;10.33;;;2.70;84.80;;;;;;4936078;29;20035;-82
2021/01/16 02:26:56;;;;;;;19.03;10.67;;;2.60;84.70;;;;;;4918860;29;20038;-81
2021/01/16 02:29:23;;;;;;;18.87;9.70;;;2.60;84.80;;;;;;4939256;29;20031;-82
2021/01/16 02:31:49;;;;;;;17.10;9.30;;;2.60;84.80;;;;;;4922724;29;20043;-81
2021/01/16 02:34:18;;;;;;;17.77;9.07;;;2.70;84.90;;;;;;4922650;29;20039;-82
2021/01/16 02:37:15;;;;;;;21.50;10.40;;;2.70;84.90;;;;;;4939628;29;20035;-81
2021/01/16 02:39:53;;;;;;;19.33;9.77;;;2.60;84.70;;;;;;4922405;29;20134;-81
2021/01/16 02:42:42;;;;;;;22.20;11.57;;;2.70;84.60;;;;;;4939571;29;20090;-82
2021/01/16 02:45:21;;;;;;;19.70;10.80;;;2.60;84.60;;;;;;4939632;29;20028;-82
2021/01/16 02:48:23;;;;;;;19.67;11.00;;;2.70;84.60;;;;;;4922601;29;20495;-82
2021/01/16 02:50:52;;;;;;;18.97;9.97;;;2.60;84.50;;;;;;4899741;29;20551;-76
2021/01/16 02:53:24;;;;;;;19.30;9.57;;;2.60;84.50;;;;;;4922380;29;20059;-74
2021/01/16 02:55:51;;;;;;;23.00;10.87;;;2.60;84.40;;;;;;4906544;29;20032;-73
2021/01/16 02:58:17;;;;;;;20.23;10.13;;;2.60;84.40;;;;;;4922205;29;20079;-73
2021/01/16 03:00:44;;;;;;;21.53;10.33;;;2.60;84.40;;;;;;4921789;29;20078;-73
2021/01/16 03:03:09;;;;;;;19.20;9.97;;;2.70;84.40;;;;;;4921964;29;20387;-73
2021/01/16 03:05:35;;;;;;;18.30;9.70;;;2.60;84.40;;;;;;4906554;29;20027;-74
2021/01/16 03:08:02;;;;;;;17.17;9.60;;;2.60;84.40;;;;;;4906305;29;20043;-74
2021/01/16 03:10:30;;;;;;;19.23;10.30;;;2.60;84.50;;;;;;4922420;29;20372;-74
2021/01/16 03:12:56;;;;;;;17.60;9.33;;;2.60;84.50;;;;;;4922278;29;20032;-74
2021/01/16 03:15:22;;;;;;;20.40;10.23;;;2.60;84.40;;;;;;4906161;29;20517;-74
2021/01/16 03:17:56;;;;;;;19.07;10.40;;;2.60;84.20;;;;;;4906470;29;20031;-74
2021/01/16 03:20:29;;;;;;;19.27;11.00;;;2.60;84.20;;;;;;4906184;29;20032;-74
2021/01/16 03:22:57;;;;;;;20.45;10.23;;;2.60;84.20;;;;;;4922031;29;20072;-74
2021/01/16 03:25:25;;;;;;;21.23;10.23;;;2.60;84.20;;;;;;4922099;29;20098;-74
2021/01/16 03:27:51;;;;;;;20.03;11.17;;;2.60;84.20;;;;;;4921614;29;20024;-74
2021/01/16 03:30:18;;;;;;;21.50;11.17;;;2.60;84.20;;;;;;4921539;29;20074;-74
2021/01/16 03:32:49;;;;;;;21.30;10.73;;;2.60;84.30;;;;;;4921689;29;20037;-74
2021/01/16 03:35:16;;;;;;;20.40;11.17;;;2.60;84.20;;;;;;4921576;29;20049;-74
2021/01/16 03:37:46;;;;;;;20.60;10.33;;;2.50;84.30;;;;;;4922009;29;20035;-74
2021/01/16 03:40:13;;;;;;;21.63;11.10;;;2.50;84.40;;;;;;4937300;29;20510;-75
2021/01/16 03:42:39;;;;;;;20.03;10.33;;;2.50;84.30;;;;;;4905899;29;20468;-73
2021/01/16 03:45:08;;;;;;;19.67;10.30;;;2.50;84.40;;;;;;4921679;29;20024;-80
2021/01/16 03:47:34;;;;;;;26.43;11.53;;;2.50;84.40;;;;;;4938590;29;20383;-82
2021/01/16 03:50:00;;;;;;;20.27;10.63;;;2.50;84.50;;;;;;4921432;29;20027;-82
2021/01/16 03:52:29;;;;;;;21.43;11.27;;;2.50;84.40;;;;;;4938512;29;20472;-82
2021/01/16 03:54:55;;;;;;;23.87;11.67;;;2.50;84.50;;;;;;4921247;29;20038;-80
2021/01/16 03:57:22;;;;;;;20.47;11.23;;;2.50;84.50;;;;;;4905613;29;20040;-80
2021/01/16 03:59:48;;;;;;;23.33;11.47;;;2.50;84.50;;;;;;4938377;29;20035;-80
2021/01/16 04:02:13;;;;;;;21.13;11.23;;;2.50;85.20;;;;;;4905108;29;20028;-79
2021/01/16 04:04:39;;;;;;;18.73;9.77;;;2.50;84.70;;;;;;4905402;29;20028;-80
2021/01/16 04:07:07;;;;;;;22.17;11.37;;;2.60;84.60;;;;;;4921148;29;20051;-81
2021/01/16 04:09:33;;;;;;;21.33;10.80;;;2.50;85.10;;;;;;4921018;29;20447;-81
2021/01/16 04:11:58;;;;;;;24.70;11.73;;;2.50;84.60;;;;;;4938286;29;20114;-81
2021/01/16 04:14:24;;;;;;;24.07;12.77;;;2.50;84.60;;;;;;4905194;29;20107;-81
2021/01/16 04:16:50;;;;;;;19.03;10.87;;;2.50;84.50;;;;;;4905146;29;20129;-81
2021/01/16 04:19:15;;;;;;;21.83;11.00;;;2.60;84.60;;;;;;4905126;29;20042;-81
2021/01/16 04:21:41;;;;;;;19.07;10.60;;;2.60;84.60;;;;;;4920857;29;20040;-81
2021/01/16 04:24:07;;;;;;;23.37;10.70;;;2.60;84.60;;;;;;4937772;29;20032;-81
2021/01/16 04:26:32;;;;;;;21.57;10.77;;;2.60;84.60;;;;;;4921204;29;20091;-81
2021/01/16 04:28:58;;;;;;;19.30;9.90;;;2.60;84.60;;;;;;4904829;29;20027;-81
2021/01/16 04:31:24;;;;;;;20.90;10.97;;;2.60;84.70;;;;;;4920478;29;20039;-81
2021/01/16 04:33:49;;;;;;;19.43;10.57;;;2.60;84.80;;;;;;4904687;29;20031;-81
2021/01/16 04:36:15;;;;;;;20.03;9.73;;;2.50;84.80;;;;;;4920509;29;20047;-81
2021/01/16 04:38:40;;;;;;;20.23;10.47;;;2.50;84.80;;;;;;4904754;29;20032;-81
2021/01/16 04:41:06;;;;;;;22.23;11.00;;;2.60;84.80;;;;;;4904324;29;20411;-81
2021/01/16 04:43:32;;;;;;;20.97;11.00;;;2.60;85.40;;;;;;4904722;29;20028;-81
2021/01/16 04:46:04;;;;;;;22.47;11.47;;;2.60;84.70;;;;;;4904553;29;20458;-81
2021/01/16 04:48:32;;;;;;;21.03;11.00;;;2.50;84.60;;;;;;4920118;29;20016;-82
2021/01/16 04:51:00;;;;;;;22.17;11.33;;;2.50;84.70;;;;;;4919865;29;20019;-82
2021/01/16 04:53:39;;;;;;;22.60;10.63;;;2.50;84.80;;;;;;4920316;29;20034;-81
2021/01/16 04:56:06;;;;;;;18.97;10.67;;;2.60;85.40;;;;;;4937208;29;20028;-81
2021/01/16 04:58:39;;;;;;;20.53;11.13;;;2.60;84.70;;;;;;4904360;29;20083;-82
2021/01/16 05:01:07;;;;;;;22.77;11.17;;;2.60;84.70;;;;;;4936591;29;20024;-81
2021/01/16 05:03:38;;;;;;;20.77;10.57;;;2.60;84.80;;;;;;4919796;29;20056;-81
2021/01/16 05:06:09;;;;;;;22.57;11.63;;;2.60;84.70;;;;;;4919856;29;20043;-81
2021/01/16 05:08:38;;;;;;;22.50;10.50;;;2.60;84.80;;;;;;4919820;29;20019;-81
2021/01/16 05:11:06;;;;;;;21.17;11.97;;;2.60;84.70;;;;;;4919806;29;20036;-82
2021/01/16 05:13:42;;;;;;;20.87;10.63;;;2.60;84.70;;;;;;4936792;29;20032;-81
2021/01/16 05:16:11;;;;;;;21.83;11.23;;;2.60;84.60;;;;;;4919855;29;20062;-81
2021/01/16 05:18:39;;;;;;;19.07;10.03;;;2.60;84.60;;;;;;4919282;29;20042;-81
2021/01/16 05:21:05;;;;;;;19.40;10.10;;;2.60;84.60;;;;;;4919486;29;20035;-81
2021/01/16 05:23:33;;;;;;;18.83;10.60;;;2.60;84.60;;;;;;4919628;29;20028;-82
2021/01/16 05:25:59;;;;;;;21.27;11.17;;;2.60;84.60;;;;;;4919610;29;20024;-82
2021/01/16 05:28:26;;;;;;;21.43;11.53;;;2.60;84.50;;;;;;4919483;29;20028;-82
2021/01/16 05:30:56;;;;;;;20.83;11.13;;;2.60;84.50;;;;;;4919630;29;20036;-81
2021/01/16 05:33:25;;;;;;;20.87;11.80;;;2.60;84.40;;;;;;4920177;29;20020;-81
2021/01/16 05:35:52;;;;;;;23.03;11.70;;;2.60;85.00;;;;;;4922740;29;20060;-82
2021/01/16 05:38:24;;;;;;;25.07;12.90;;;2.60;84.30;;;;;;4938247;29;20038;-83
2021/01/16 05:40:53;;;;;;;25.10;12.80;;;2.50;84.20;;;;;;4955095;29;20039;-82
2021/01/16 05:43:20;;;;;;;25.67;12.73;;;2.60;84.20;;;;;;4944622;29;20164;-81
2021/01/16 05:45:50;;;;;;;23.37;12.77;;;2.50;84.10;;;;;;4936156;29;20028;-82
2021/01/16 05:48:16;;;;;;;22.27;12.40;;;2.50;84.10;;;;;;4936265;29;20102;-81
2021/01/16 05:50:42;;;;;;;23.03;12.20;;;2.50;84.10;;;;;;4936202;29;20487;-81
2021/01/16 05:53:09;;;;;;;22.40;12.00;;;2.50;84.20;;;;;;4903585;29;20047;-82
2021/01/16 05:55:35;;;;;;;22.30;11.93;;;2.50;84.20;;;;;;4936230;29;20028;-82
2021/01/16 05:58:08;;;;;;;26.37;14.07;;;2.50;84.20;;;;;;4936148;29;20031;-82
2021/01/16 06:00:43;;;;;;;21.83;12.23;;;2.50;84.10;;;;;;4919105;29;20047;-82
2021/01/16 06:03:12;;;;;;;27.37;13.80;;;2.50;84.00;;;;;;4935636;29;20103;-81
2021/01/16 06:05:37;;;;;;;23.47;12.60;;;2.50;83.90;;;;;;4919565;29;20035;-81
2021/01/16 06:08:08;;;;;;;21.00;12.37;;;2.50;84.00;;;;;;4903534;29;20032;-82
2021/01/16 06:10:36;;;;;;;26.10;13.47;;;2.50;84.00;;;;;;4919377;29;20122;-81
2021/01/16 06:13:14;;;;;;;22.97;12.57;;;2.40;83.90;;;;;;4904202;29;20032;-81
2021/01/16 06:15:48;;;;;;;23.73;12.80;;;2.50;84.00;;;;;;4918886;29;20024;-82
2021/01/16 06:18:40;;;;;;;23.33;12.67;;;2.40;83.90;;;;;;4936102;29;20050;-82
2021/01/16 06:21:05;;;;;;;22.47;12.60;;;2.40;84.00;;;;;;4918769;29;20020;-81
2021/01/16 06:23:32;;;;;;;22.03;11.00;;;2.40;84.00;;;;;;4918942;29;20087;-82
2021/01/16 06:26:05;;;;;;;22.60;12.27;;;2.40;84.10;;;;;;4903256;29;20020;-81
2021/01/16 06:28:37;;;;;;;27.90;13.30;;;2.40;84.10;;;;;;4918882;29;20016;-81
2021/01/16 06:31:20;;;;;;;20.67;11.77;;;2.40;84.20;;;;;;4931663;29;20024;-81
2021/01/16 06:34:01;;;;;;;22.25;12.75;;;2.40;84.20;;;;;;4954917;29;20086;-81
2021/01/16 06:36:30;;;;;;;22.73;10.93;;;2.40;84.20;;;;;;4954035;29;20035;-81
2021/01/16 06:39:07;;;;;;;24.27;12.80;;;2.40;84.30;;;;;;4954834;29;20035;-82
2021/01/16 06:41:35;;;;;;;25.03;13.67;;;2.40;84.20;;;;;;4954673;29;20142;-82
2021/01/16 06:44:01;;;;;;;23.60;13.27;;;2.40;84.10;;;;;;4937863;29;20035;-82
2021/01/16 06:46:49;;;;;;;27.13;13.70;;;2.50;84.10;;;;;;4954906;29;20036;-81
2021/01/16 06:49:27;;;;;;;22.87;12.57;;;2.40;84.10;;;;;;4937724;29;20031;-82
2021/01/16 06:51:57;;;;;;;21.57;12.13;;;2.40;84.20;;;;;;4937971;29;20383;-82
2021/01/16 06:54:27;;;;;;;21.53;12.23;;;2.40;84.20;;;;;;4938566;29;20031;-73
2021/01/16 06:57:12;;;;;;;21.33;11.90;;;2.40;84.20;;;;;;4938456;29;20043;-74
2021/01/16 06:59:42;;;;;;;23.20;13.40;;;2.40;84.30;;;;;;4938251;29;20460;-74
2021/01/16 07:02:32;;;;;;;22.80;12.23;;;2.40;84.40;;;;;;4937832;29;20403;-74
2021/01/16 07:05:06;;;;;;;26.47;12.60;;;2.40;84.30;;;;;;4937826;29;20029;-82
2021/01/16 07:07:34;;;;;;;16.48;8.57;;;2.30;84.40;;;;;;4937605;29;20039;-81
2021/01/16 07:10:06;;;;;;;21.03;10.53;;;2.30;84.40;;;;;;4937554;29;20020;-82
2021/01/16 07:12:32;;;;;;;20.33;11.60;;;2.30;84.50;;;;;;4954802;29;20028;-74
2021/01/16 07:14:58;;;;;;;24.60;12.60;;;2.30;84.40;;;;;;4940038;29;20464;-74
2021/01/16 07:17:25;;;;;;;20.53;11.57;;;2.30;84.40;;;;;;4958556;29;20114;-73
2021/01/16 07:19:53;;;;;;;22.33;12.07;;;2.40;84.60;;;;;;4941239;29;20047;-74
2021/01/16 07:22:26;;;;;;;26.17;13.17;;;2.40;84.60;;;;;;4958027;29;20027;-74
2021/01/16 07:24:53;;;;;;;21.97;12.00;;;2.40;84.50;;;;;;4925940;29;20027;-74
2021/01/16 07:27:20;;;;;;;25.23;13.53;;;2.30;84.60;;;;;;4924979;29;20505;-74
2021/01/16 07:29:45;;;;;;;23.53;12.70;;;2.40;84.60;;;;;;4909301;29;20023;-74
2021/01/16 07:32:15;;;;;;;23.67;13.20;;;2.40;84.50;;;;;;4940937;29;20094;-74
2021/01/16 07:34:45;;;;;;;23.60;11.83;;;2.40;84.50;;;;;;4958135;29;20110;-73
2021/01/16 07:37:12;;;;;;;23.93;12.40;;;2.40;85.30;;;;;;4924831;29;20027;-74
2021/01/16 07:39:43;;;;;;;20.73;11.10;;;2.40;84.70;;;;;;4908812;29;20511;-74
2021/01/16 07:42:15;;;;;;;20.73;11.70;;;2.40;84.80;;;;;;4941122;29;20024;-74
2021/01/16 07:44:45;;;;;;;24.73;12.33;;;2.40;84.80;;;;;;4940683;29;20031;-74
2021/01/16 07:47:22;;;;;;;26.40;12.93;;;2.40;84.70;;;;;;4940666;29;20020;-74
2021/01/16 07:49:53;;;;;;;22.83;12.83;;;2.40;84.70;;;;;;4940894;29;20027;-74
2021/01/16 07:52:23;;;;;;;24.53;11.40;;;2.40;84.60;;;;;;4940559;29;20028;-74
2021/01/16 07:55:03;;;;;;;24.37;13.03;;;2.40;84.50;;;;;;4957716;29;20031;-74
2021/01/16 07:57:30;;;;;;;22.60;12.57;;;2.40;84.40;;;;;;4940572;29;20166;-74
2021/01/16 08:00:00;;;;;;;23.90;12.83;;;2.40;84.40;;;;;;4920561;29;20079;-74
2021/01/16 08:02:30;;;;;;;23.10;12.27;;;2.40;84.50;;;;;;4938402;29;20063;-73
2021/01/16 08:05:16;;;;;;;20.20;12.00;;;2.40;84.60;;;;;;4915737;29;20038;-74
2021/01/16 08:08:08;;;;;;;21.77;12.20;;;2.40;84.50;;;;;;4948655;29;20032;-74
2021/01/16 08:10:34;;;;;;;23.87;13.07;;;2.40;84.30;;;;;;4945428;29;20162;-75
2021/01/16 08:13:04;;;;;;;23.93;12.63;;;2.50;84.20;;;;;;4895666;29;20107;-74
2021/01/16 08:15:30;;;;;;;26.63;12.67;;;2.50;84.10;;;;;;4921895;29;20030;-73
2021/01/16 08:17:59;;;;;;;22.43;12.33;;;2.50;84.20;;;;;;4937819;29;20028;-74
2021/01/16 08:20:33;;;;;;;25.57;14.27;;;2.50;84.00;;;;;;4920697;29;20023;-75
2021/01/16 08:22:58;;;;;;;26.05;12.63;;;2.50;84.10;;;;;;4922251;29;20023;-74
2021/01/16 08:25:29;;;;;;;23.00;11.97;;;2.50;84.20;;;;;;4920196;29;20020;-74
2021/01/16 08:28:00;;;;;;;25.40;12.30;;;2.50;84.20;;;;;;4938042;29;20400;-81
2021/01/16 08:30:29;;;;;;;20.37;11.53;;;2.50;84.10;;;;;;4948072;29;20103;-82
2021/01/16 08:33:06;;;;;;;22.60;12.00;;;2.50;84.10;;;;;;4920557;29;20024;-81
2021/01/16 08:35:41;;;;;;;22.50;12.27;;;2.60;84.20;;;;;;4905821;29;20039;-81
2021/01/16 08:38:18;;;;;;;22.67;12.83;;;2.50;84.10;;;;;;4949227;28;20035;-82
2021/01/16 08:40:55;;;;;;;26.67;13.50;;;2.60;84.80;;;;;;4961574;28;20046;-82
2021/01/16 08:43:44;;;;;;;22.10;12.47;;;2.60;83.80;;;;;;4958627;28;20019;-82
2021/01/16 08:46:22;;;;;;;25.60;12.90;;;2.60;83.80;;;;;;4942391;28;20023;-81
2021/01/16 08:49:29;;;;;;;24.50;14.17;;;2.70;83.70;;;;;;4975533;28;20027;-81
2021/01/16 08:51:54;;;;;;;27.67;14.03;;;2.60;83.50;;;;;;4898732;29;20500;-81
2021/01/16 08:54:24;;;;;;;23.80;13.17;;;2.70;83.50;;;;;;4920177;29;20070;-82
2021/01/16 08:57:11;;;;;;;26.07;14.73;;;2.70;83.30;;;;;;4923486;29;20391;-82
2021/01/16 08:59:38;;;;;;;24.00;13.57;;;2.70;83.20;;;;;;4939077;29;20383;-82
2021/01/16 09:02:10;;;;;;;29.20;15.13;;;2.70;83.10;;;;;;4920270;29;20027;-80
2021/01/16 09:04:39;;;;;;;25.93;13.67;;;2.70;83.00;;;;;;4932302;29;20078;-81
2021/01/16 09:07:22;;;;;;;25.17;14.03;;;2.70;82.90;;;;;;4938994;29;20031;-81
2021/01/16 09:09:59;;;;;;;26.75;15.10;;;2.70;82.90;;;;;;4969732;28;20119;-73
2021/01/16 09:12:39;;;;;;;23.83;13.77;;;2.70;82.90;;;;;;4975411;28;20053;-73
2021/01/16 09:15:35;;;;;;;24.57;13.77;;;2.80;82.90;;;;;;4948298;28;20035;-73
2021/01/16 09:18:12;;;;;;;26.03;13.83;;;2.80;82.70;;;;;;4915033;29;20047;-74
2021/01/16 09:21:05;;;;;;;24.67;14.37;;;2.80;82.40;;;;;;4938708;29;20129;-73
2021/01/16 09:23:38;;;;;;;29.97;16.07;;;2.80;82.10;;;;;;4955114;29;20067;-73
2021/01/16 09:26:03;;;;;;;25.87;13.87;;;2.80;82.70;;;;;;4955725;29;20062;-73
2021/01/16 09:28:43;;;;;;;28.20;14.10;;;2.80;82.20;;;;;;4955586;29;20031;-73
2021/01/16 09:31:21;;;;;;;26.23;14.20;;;2.90;82.10;;;;;;4938438;29;20042;-73
2021/01/16 09:33:49;;;;;;;23.80;13.87;;;2.80;81.70;;;;;;4938234;29;20043;-74
2021/01/16 09:36:56;;;;;;;25.20;13.57;;;2.90;81.90;;;;;;4938378;29;20027;-73
2021/01/16 09:39:26;;;;;;;24.63;12.30;;;2.90;81.80;;;;;;4843512;29;20037;-73
2021/01/16 09:41:56;;;;;;;25.40;14.07;;;2.90;81.80;;;;;;4843304;29;20609;-74
2021/01/16 09:44:37;;;;;;;28.90;14.93;;;2.90;81.70;;;;;;4895516;29;20495;-73
2021/01/16 09:47:23;;;;;;;24.47;15.07;;;2.90;81.70;;;;;;4955782;29;20446;-73
2021/01/16 09:49:49;;;;;;;26.60;14.53;;;2.90;81.50;;;;;;4938086;29;20034;-74
2021/01/16 09:52:15;;;;;;;24.77;14.40;;;2.90;81.40;;;;;;4938093;29;20035;-73
2021/01/16 09:54:42;;;;;;;24.17;14.00;;;2.90;81.30;;;;;;4955646;29;20040;-73
2021/01/16 09:57:08;;;;;;;25.80;13.93;;;2.90;81.40;;;;;;4955246;29;20042;-73
2021/01/16 09:59:34;;;;;;;25.53;13.43;;;2.90;81.10;;;;;;4938176;29;20514;-74
2021/01/16 10:02:11;;;;;;;26.67;15.07;;;2.90;81.00;;;;;;4937936;29;20032;-74
2021/01/16 10:04:41;;;;;;;27.23;14.63;;;3.00;81.00;;;;;;4955186;29;20035;-74
2021/01/16 10:07:09;;;;;;;28.27;15.90;;;2.90;80.70;;;;;;4938030;29;20034;-74
2021/01/16 10:09:46;;;;;;;29.07;15.70;;;2.90;80.10;;;;;;4937865;29;20054;-75
2021/01/16 10:12:35;;;;;;;26.27;14.57;;;2.90;79.60;;;;;;4938249;29;20066;-75
2021/01/16 10:15:06;;;;;;;32.30;16.30;;;2.90;79.60;;;;;;4923881;29;20143;-75
2021/01/16 10:17:32;;;;;;;26.83;14.20;;;2.90;79.60;;;;;;4955115;29;20078;-75
2021/01/16 10:20:07;;;;;;;27.40;15.03;;;2.90;79.30;;;;;;4920655;29;20087;-73
2021/01/16 10:22:34;;;;;;;25.27;14.70;;;3.00;78.90;;;;;;4925216;29;20027;-73
2021/01/16 10:25:00;;;;;;;26.63;14.63;;;3.00;78.80;;;;;;4922041;29;20032;-73
2021/01/16 10:27:56;;;;;;;24.57;13.60;;;3.00;78.50;;;;;;4930044;29;20023;-73
2021/01/16 10:30:32;;;;;;;29.23;14.97;;;3.00;78.40;;;;;;4937685;29;20023;-75
2021/01/16 10:32:59;;;;;;;23.70;13.43;;;3.10;78.10;;;;;;4925054;29;20028;-75
2021/01/16 10:35:31;;;;;;;26.43;13.90;;;3.20;78.10;;;;;;4927580;29;20024;-75
2021/01/16 10:38:01;;;;;;;30.63;15.40;;;3.10;77.70;;;;;;4929420;29;20082;-73
2021/01/16 10:40:29;;;;;;;28.50;15.87;;;3.10;77.20;;;;;;4903776;29;20098;-75
2021/01/16 10:42:59;;;;;;;30.17;16.63;;;3.10;76.60;;;;;;4921770;29;20147;-73
2021/01/16 10:45:32;;;;;;;29.43;15.70;;;3.20;76.90;;;;;;4941826;29;20024;-74
2021/01/16 10:48:16;;;;;;;27.80;15.43;;;3.20;76.80;;;;;;4936719;29;20032;-74
2021/01/16 10:50:44;;;;;;;28.63;14.38;;;3.20;76.10;;;;;;4958214;29;20038;-74
2021/01/16 10:53:10;;;;;;;27.57;14.10;;;3.10;76.40;;;;;;4946660;29;20054;-74
2021/01/16 10:55:55;;;;;;;27.67;14.97;;;3.20;76.00;;;;;;4891269;29;20086;-74
2021/01/16 10:58:21;;;;;;;;;;;3.20;76.30;;;;;;4934680;29;20027;-76
2021/01/16 11:00:54;;;;;;;25.63;13.50;;;3.20;74.90;;;;;;4939465;29;19910;-75
2021/01/16 11:03:23;;;;;;;28.83;13.90;;;3.20;75.40;;;;;;4921994;29;20023;-74
2021/01/16 11:05:49;;;;;;;26.47;14.30;;;3.30;74.80;;;;;;4921516;29;20031;-73
2021/01/16 11:08:19;;;;;;;26.40;13.97;;;3.30;74.50;;;;;;4931671;29;20030;-76
2021/01/16 11:10:47;;;;;;;26.97;13.70;;;3.20;74.00;;;;;;4941601;29;20031;-75
2021/01/16 11:13:31;;;;;;;27.03;13.77;;;3.30;72.50;;;;;;4933841;29;20047;-75
2021/01/16 11:16:19;;;;;;;28.40;14.23;;;3.30;73.40;;;;;;4921857;29;20031;-74
2021/01/16 11:18:45;;;;;;;23.80;12.93;;;3.30;73.20;;;;;;4906028;29;20031;-74
2021/01/16 11:21:30;;;;;;;27.20;14.20;;;3.30;73.60;;;;;;4921336;29;20066;-74
2021/01/16 11:24:22;;;;;;;23.90;12.90;;;3.30;73.50;;;;;;4924009;29;20154;-76
2021/01/16 11:26:48;;;;;;;28.83;13.60;;;3.30;73.20;;;;;;4922069;29;20476;-74
2021/01/16 11:29:20;;;;;;;23.57;12.53;;;3.30;72.50;;;;;;4906290;29;20134;-76
2021/01/16 11:31:51;;;;;;;23.87;12.27;;;3.30;72.90;;;;;;4938851;29;20028;-74
2021/01/16 11:34:21;;;;;;;23.13;12.23;;;3.40;73.00;;;;;;4921925;29;20554;-75
2021/01/16 11:36:54;;;;;;;22.00;11.37;;;3.40;72.70;;;;;;4921797;29;20032;-76
2021/01/16 11:39:43;;;;;;;22.88;11.63;;;3.40;73.10;;;;;;4927103;29;20038;-75
2021/01/16 11:42:11;;;;;;;26.60;13.83;;;3.40;73.10;;;;;;4921723;29;20032;-75
2021/01/16 11:44:56;;;;;;;26.40;13.20;;;3.40;72.60;;;;;;4921582;29;20023;-75
2021/01/16 11:47:22;;;;;;;23.13;12.23;;;3.50;72.40;;;;;;4928979;29;20057;-74
2021/01/16 11:49:48;;;;;;;22.13;12.30;;;3.40;72.80;;;;;;4924822;29;20089;-76
2021/01/16 11:52:15;;;;;;;23.07;12.27;;;3.50;72.00;;;;;;4921529;29;20035;-74
2021/01/16 11:54:41;;;;;;;28.83;13.27;;;3.50;72.00;;;;;;4921649;29;20032;-74
2021/01/16 11:57:12;;;;;;;24.60;11.30;;;3.50;72.70;;;;;;4921502;29;20038;-75
2021/01/16 11:59:40;;;;;;;26.93;12.30;;;3.50;71.70;;;;;;4890015;29;20387;-76
2021/01/16 12:02:12;;;;;;;23.57;11.27;;;3.50;71.40;;;;;;4942500;29;20028;-76
2021/01/16 12:04:41;;;;;;;23.40;11.63;;;3.50;71.20;;;;;;4957553;29;20035;-74
2021/01/16 12:07:07;;;;;;;20.70;11.80;;;3.40;71.40;;;;;;4924691;29;20035;-75
2021/01/16 12:09:36;;;;;;;21.10;11.70;;;3.50;71.90;;;;;;4957681;29;20098;-74
2021/01/16 12:12:02;;;;;;;20.23;11.17;;;3.50;71.70;;;;;;4940111;29;20031;-75
2021/01/16 12:14:36;;;;;;;18.73;10.67;;;3.50;70.80;;;;;;4957354;29;20041;-74
2021/01/16 12:17:06;;;;;;;22.13;10.75;;;3.50;71.30;;;;;;4908457;29;20031;-75
2021/01/16 12:19:33;;;;;;;21.57;11.60;;;3.50;71.60;;;;;;4939823;29;20036;-74
2021/01/16 12:22:03;;;;;;;21.90;11.07;;;3.50;71.60;;;;;;4924001;29;20105;-76
2021/01/16 12:24:29;;;;;;;22.47;11.60;;;3.50;71.50;;;;;;4956916;29;20427;-74
2021/01/16 12:26:58;;;;;;;20.33;10.80;;;3.60;71.30;;;;;;4924213;29;20031;-74
2021/01/16 12:29:46;;;;;;;22.13;11.00;;;3.60;71.40;;;;;;4957274;29;20059;-75
2021/01/16 12:32:14;;;;;;;18.77;9.60;;;3.60;72.00;;;;;;4958052;29;20023;-75
2021/01/16 12:34:54;;;;;;;18.90;9.57;;;3.60;70.70;;;;;;4959997;29;20027;-77
2021/01/16 12:37:27;;;;;;;19.93;9.90;;;3.60;70.80;;;;;;4922155;29;20074;-77
2021/01/16 12:39:54;;;;;;;18.15;10.32;;;3.50;70.50;;;;;;4940752;29;20034;-77
2021/01/16 12:42:20;;;;;;;19.30;9.57;;;3.50;70.70;;;;;;4939728;29;20036;-76
2021/01/16 12:44:45;;;;;;;21.00;9.63;;;3.50;70.70;;;;;;4923098;29;20028;-76
2021/01/16 12:47:22;;;;;;;23.63;10.70;;;3.50;70.20;;;;;;4922814;29;20052;-76
2021/01/16 12:49:52;;;;;;;17.63;9.80;;;3.50;69.70;;;;;;4922260;29;20123;-76
2021/01/16 12:52:26;;;;;;;21.63;10.07;;;3.50;70.00;;;;;;4920169;29;20028;-76
2021/01/16 12:55:10;;;;;;;19.73;8.25;;;3.50;69.70;;;;;;4937393;29;20448;-75
2021/01/16 12:57:46;;;;;;;16.35;8.55;;;3.50;69.60;;;;;;4937049;29;20028;-76